Laughlin Air Force Base
KDLF : now visible

Airfield :











YOU CAN JOIN US ON...

 
LOGIN :

Register | Disclaimer

   EN    FR    IT 

 









Legend :    VFR   Marginal VFR   IFR   Intensive IFR   Very Intensive IFR
Visi :
Ceiling :
>= 8 km
>= 3000ft
5 to 8 km
1000 to 3000 ft
1500m to 5 km
500 to 1000 ft
800 to 1500m
200 to 500 ft
< 800m
< 200 ft
Symbols :   Thunderstorms  Fog  Heavy snow  Heavy precipitations  Wind > 20 kt






- Airport Elevation : 1082 ft


KDLF - Laughlin Air Force Base

CURRENT METAR :
  • 290755Z AUTO 14008KT 3SM BR OVC003 17/17 A2975 RMK AO2 CIG 001 RWY31 SLP067 T01690167 $

EXPIRED METARs :
  • 290725Z AUTO 13009KT 4SM BR OVC002 17/17 A2975 RMK AO2 SLP067 $
  • 290655Z AUTO 13009KT 7SM OVC004 17/17 A2976 RMK AO2 DZB34E47 CIG 003 RWY31 SLP070 P0000 T01720170 $
  • 290647Z AUTO 14011KT 8SM OVC004 17/17 A2976 RMK AO2 DZB34E47 CIG 003 RWY31 SLP070 $
  • 290555Z AUTO 12009KT 10SM OVC006 16/15 A2977 RMK AO2 SLP075 T01560154 10188 20140 402360028 58008 $
  • 290540Z AUTO 10006KT 10SM OVC006 15/14 A2978 RMK AO2 CIG 006V008 OVC V BKN SLP079 $
  • 290525Z AUTO 10006KT 9SM BKN008 14/14 A2978 RMK AO2 BKN V SCT SLP079 $
  • 290455Z AUTO 12007KT 10SM CLR 14/14 A2979 RMK AO2 SLP083 T01430141 $

TAF AMD TAF KDLF
Valid from the 29 at 00:00 until the 30 at 02:00 UTC


290032Z 2900/3002 14010G15KT 9999 SKC QNH2982INS
BECMG 2901/2902 13008KT 9999 SKC QNH2984INS
BECMG 2903/2904 14010KT 9999 SCT006 BKN013 QNH2985INS
TEMPO 2905/2909 BKN006
BECMG 2916/2917 VRB06KT 9999 FEW006 SCT010 QNH2987INS
BECMG 2920/2921 34006KT 9999 SKC QNH2978INS TX22/2920Z TN15/2904Z LAST NO AMDS AFT 2900 NEXT 2912
KZHU FIR / North America



MET'MAP, your aeronautical weather chart ! - Copyright ORBIFLY December 2007 - Disclaimer

ORBIFLY MET'MAP TEAM :

Programming & Development : Alexandra Zaïnal
Original concept : Baudouin d'Aumeries
Technical & hardware support : Manuel Goepfert
Assistance : Marc-Olivier Méhu




SOURCES & CREDITS :

   NOAA       Earth
Advisory